Honolulu, HI (96815)

11:59 PM HST on February 10, 2016 (GMT -1000)
Allure Waikiki | | Change Station
CLOSE
Current Station
Personal Weather Station
Location: Honolulu, HI
Elevation: 39 ft
Nearby Weather Stations

Elev 39 ft 21.29 °N, 157.83 °W | Updated 7 minutes ago

Partly Cloudy
Partly Cloudy
70.9 °F
Feels Like 74 °F
N
0.0
Wind Variable Wind from NNE

Today
High -- | Low -- °F
--% Chance of Precip.
Yesterday
High -- | Low -- °F
Precip. -- in
Pressure 30.06 in
Visibility 10.0 miles
Clouds Few 2500 ft
Heat Index 74 °F
Dew Point 60 °F
Humidity 69%
Rainfall 0.02 in
Snow Depth Not available.
7:04 AM 6:26 PM
Waxing Crescent, 11% visible
METAR PHNL 110953Z 00000KT 10SM FEW025 20/16 A3006 RMK AO2 SLP178 T02000161 402610172
Pressure 30.06 in
Visibility 10.0 miles
Clouds Few 2500 ft
Heat Index 74 °F
Dew Point 60 °F
Humidity 69%
Rainfall 0.02 in
Snow Depth Not available.
7:04 AM 6:26 PM
Waxing Crescent, 11% visible
METAR PHNL 110953Z 00000KT 10SM FEW025 20/16 A3006 RMK AO2 SLP178 T02000161 402610172

10-Day Weather Forecast

Almanac

Astronomy

Feb. 10, 2016 Rise Set
Actual Time
Civil Twilight
Nautical Twilight
Astronomical Twilight
Moon
Length of Visible Light
Length of Day
Tomorrow will be .
, % of the Moon is Illuminated

Today's Extremes

State Highs State Lows

Community

WunderPhotos

Upload Photos

1,892,030 photos uploaded!

WunderBlog® & News

Nearby

Air Quality

  Air Quality AQ Index Pollutant
Not available.

Snow Depth

Station Depth Elevation

Earthquake Activity

City Distance Mag. Time & Date
Minimum magnitude displayed is 2.5.

Coastal Water Temperatures

Place Temperature

Stations

Nearby Weather Stations

Station Location Temp. Windchill Dew Point Humidity Wind Precip. Elev Updated Type
                   

Watches & Warnings

There are currently no watches in effect.